createdAt,value
2024-01-28T00:04:50.838Z,88.81
2024-01-28T00:09:53.429Z,89.27
2024-01-28T00:14:56.007Z,89.95
2024-01-28T00:19:58.607Z,89.81
2024-01-28T00:25:01.258Z,89.67
2024-01-28T00:30:05.655Z,90.10
2024-01-28T00:35:09.412Z,89.95
2024-01-28T00:40:12.446Z,89.79
2024-01-28T00:45:15.148Z,89.54
2024-01-28T00:50:17.993Z,89.81
2024-01-28T00:55:20.749Z,90.22
2024-01-28T01:00:23.414Z,90.36
2024-01-28T01:05:26.032Z,90.08
2024-01-28T01:10:28.634Z,89.79
2024-01-28T01:15:31.243Z,89.17
2024-01-28T01:20:34.595Z,89.60
2024-01-28T01:25:37.270Z,89.38
2024-01-28T01:30:40.856Z,89.55
2024-01-28T01:35:43.581Z,88.93
2024-01-28T01:40:46.209Z,88.76
2024-01-28T01:45:49.488Z,88.75
2024-01-28T01:50:52.691Z,89.43
2024-01-28T01:55:55.543Z,88.95
2024-01-28T02:00:59.591Z,88.63
2024-01-28T02:06:02.416Z,88.80
2024-01-28T02:11:07.068Z,89.18
2024-01-28T02:16:09.688Z,88.71
2024-01-28T02:21:12.509Z,88.07
2024-01-28T02:26:15.390Z,88.04
2024-01-28T02:31:18.102Z,89.10
2024-01-28T02:36:20.735Z,88.83
2024-01-28T02:41:23.375Z,88.94
2024-01-28T02:46:25.985Z,89.35
2024-01-28T02:51:28.736Z,89.83
2024-01-28T02:56:31.321Z,89.10
2024-01-28T03:01:34.122Z,89.56
2024-01-28T03:06:37.446Z,88.20
2024-01-28T03:11:40.706Z,88.86
2024-01-28T03:16:43.315Z,88.54
2024-01-28T03:21:46.025Z,88.42
2024-01-28T03:26:48.661Z,88.28
2024-01-28T03:31:51.409Z,87.94
2024-01-28T03:36:54.001Z,88.44
2024-01-28T03:41:56.657Z,88.38
2024-01-28T03:46:59.316Z,89.00
2024-01-28T03:52:02.000Z,88.93
2024-01-28T03:57:04.961Z,88.21
2024-01-28T04:02:08.869Z,88.94
2024-01-28T04:07:15.059Z,88.53
2024-01-28T04:12:17.740Z,88.31
2024-01-28T04:17:20.393Z,88.23
2024-01-28T04:22:23.031Z,88.91
2024-01-28T04:27:25.669Z,88.69
2024-01-28T04:32:28.407Z,88.90
2024-01-28T04:37:31.407Z,88.37
2024-01-28T04:42:34.704Z,88.82
2024-01-28T04:47:38.998Z,87.86
2024-01-28T04:52:41.664Z,87.98
2024-01-28T04:57:44.433Z,86.99
2024-01-28T05:02:47.429Z,87.52
2024-01-28T05:07:50.922Z,86.78
2024-01-28T05:12:53.509Z,87.06
2024-01-28T05:17:56.430Z,87.00
2024-01-28T05:23:00.916Z,87.55
2024-01-28T05:28:04.144Z,87.39
2024-01-28T05:33:07.009Z,88.00
2024-01-28T05:38:09.739Z,88.28
2024-01-28T05:43:12.349Z,87.68
2024-01-28T05:48:15.136Z,86.72
2024-01-28T05:53:17.882Z,86.78
2024-01-28T05:58:22.928Z,87.21
2024-01-28T06:03:25.544Z,87.31
2024-01-28T06:08:29.334Z,86.75
2024-01-28T06:13:31.947Z,86.74
2024-01-28T06:18:36.854Z,87.01
2024-01-28T06:23:39.695Z,87.01
2024-01-28T06:28:42.357Z,87.54
2024-01-28T06:33:45.165Z,88.02
2024-01-28T06:38:48.517Z,88.47
2024-01-28T06:43:51.165Z,87.42
2024-01-28T06:48:54.101Z,87.16
2024-01-28T06:53:58.818Z,87.15
2024-01-28T06:59:01.787Z,87.02
2024-01-28T07:04:04.591Z,87.59
2024-01-28T07:09:09.158Z,86.88
2024-01-28T07:14:11.896Z,87.28
2024-01-28T07:19:15.098Z,86.56
2024-01-28T07:24:17.850Z,86.78
2024-01-28T07:29:20.516Z,87.29
2024-01-28T07:34:24.785Z,88.34
2024-01-28T07:39:27.789Z,87.04
2024-01-28T07:44:30.455Z,86.10
2024-01-28T07:49:33.240Z,85.41
2024-01-28T07:54:36.440Z,85.55
2024-01-28T07:59:39.051Z,86.07
2024-01-28T08:04:42.260Z,85.42
2024-01-28T08:09:44.970Z,84.31
2024-01-28T08:14:49.044Z,84.12
2024-01-28T08:19:52.971Z,83.75
2024-01-28T08:24:55.970Z,84.60
2024-01-28T08:29:59.155Z,83.95
2024-01-28T08:35:01.797Z,82.56
2024-01-28T08:40:08.549Z,81.76
2024-01-28T08:45:11.184Z,81.28
2024-01-28T08:50:13.742Z,78.63
2024-01-28T08:55:16.409Z,77.64
2024-01-28T09:00:19.566Z,76.43
2024-01-28T09:05:22.301Z,77.10
2024-01-28T09:10:24.974Z,75.04
2024-01-28T09:15:27.674Z,72.87
2024-01-28T09:20:30.447Z,72.62
2024-01-28T09:25:34.953Z,73.02
2024-01-28T09:30:38.021Z,72.79
2024-01-28T09:35:40.989Z,71.37
2024-01-28T09:40:43.795Z,71.75
2024-01-28T09:45:46.467Z,70.94
2024-01-28T09:50:49.511Z,69.59
2024-01-28T09:55:52.234Z,70.46
2024-01-28T10:00:55.741Z,67.72
2024-01-28T10:05:58.351Z,67.21
2024-01-28T10:11:02.472Z,67.51
2024-01-28T10:16:05.634Z,67.55
2024-01-28T10:21:08.611Z,66.84
2024-01-28T10:26:11.328Z,68.45
2024-01-28T10:31:13.916Z,65.45
2024-01-28T10:36:18.213Z,68.04
2024-01-28T10:41:20.941Z,64.47
2024-01-28T10:46:35.496Z,66.73
2024-01-28T10:51:40.272Z,63.50
2024-01-28T10:56:44.870Z,63.58
2024-01-28T11:01:49.267Z,62.38
2024-01-28T11:06:52.012Z,62.03
2024-01-28T11:11:54.652Z,63.41
2024-01-28T11:16:57.836Z,60.28
2024-01-28T11:22:03.844Z,59.96
2024-01-28T11:27:06.453Z,61.42
2024-01-28T11:32:09.237Z,58.89
2024-01-28T11:37:15.732Z,58.71
2024-01-28T11:42:18.482Z,59.34
2024-01-28T11:47:21.198Z,58.25
2024-01-28T11:52:25.110Z,57.18
2024-01-28T11:57:27.785Z,57.59
2024-01-28T12:02:30.900Z,57.15
2024-01-28T12:07:34.971Z,57.56
2024-01-28T12:12:38.874Z,56.36
2024-01-28T12:17:43.568Z,55.43
2024-01-28T12:22:46.335Z,53.91
2024-01-28T12:27:51.139Z,55.74
2024-01-28T12:32:53.797Z,52.81
2024-01-28T12:37:56.522Z,52.04
2024-01-28T12:42:59.146Z,55.81
2024-01-28T12:48:01.877Z,52.54
2024-01-28T12:53:05.294Z,54.39
2024-01-28T12:58:08.163Z,52.51
2024-01-28T13:03:11.001Z,53.80
2024-01-28T13:08:13.794Z,53.26
2024-01-28T13:13:16.534Z,53.40
2024-01-28T13:18:29.516Z,51.86
2024-01-28T13:23:36.652Z,51.55
2024-01-28T13:28:39.386Z,51.50
2024-01-28T13:33:42.063Z,53.46
2024-01-28T13:38:44.750Z,50.77
2024-01-28T13:43:47.371Z,50.58
2024-01-28T13:48:50.146Z,52.45
2024-01-28T13:53:52.800Z,50.86
2024-01-28T13:58:56.322Z,50.81
2024-01-28T14:03:59.128Z,51.43
2024-01-28T14:09:01.964Z,51.84
2024-01-28T14:14:04.615Z,53.72
2024-01-28T14:19:07.271Z,52.12
2024-01-28T14:24:10.069Z,52.92
2024-01-28T14:29:14.048Z,53.62
2024-01-28T14:34:16.727Z,55.68
2024-01-28T14:39:19.552Z,54.95
2024-01-28T14:44:22.406Z,55.01
2024-01-28T14:49:25.528Z,56.96
2024-01-28T14:54:28.261Z,56.96
2024-01-28T14:59:30.922Z,58.21
2024-01-28T15:04:34.175Z,58.95
2024-01-28T15:09:36.885Z,59.33
2024-01-28T15:14:39.489Z,59.04
2024-01-28T15:19:42.411Z,59.42
2024-01-28T15:24:45.184Z,59.69
2024-01-28T15:29:49.688Z,60.38
2024-01-28T15:34:52.306Z,60.51
2024-01-28T15:39:55.325Z,61.22
2024-01-28T15:44:58.114Z,61.42
2024-01-28T15:50:00.966Z,61.49
2024-01-28T15:55:04.095Z,62.04
2024-01-28T16:00:08.763Z,62.50
2024-01-28T16:05:12.179Z,63.52
2024-01-28T16:10:15.062Z,63.45
2024-01-28T16:15:17.855Z,64.20
2024-01-28T16:20:20.766Z,64.92
2024-01-28T16:25:23.713Z,66.50
2024-01-28T16:30:27.439Z,68.14
2024-01-28T16:35:30.192Z,69.15
2024-01-28T16:40:32.959Z,70.86
2024-01-28T16:45:35.566Z,71.75
2024-01-28T16:50:38.223Z,72.06
2024-01-28T16:55:40.847Z,73.51
2024-01-28T17:00:43.692Z,73.28
2024-01-28T17:05:46.695Z,74.53
2024-01-28T17:10:49.371Z,75.27
2024-01-28T17:15:52.137Z,74.96
2024-01-28T17:20:56.132Z,75.24
2024-01-28T17:26:00.409Z,76.00
2024-01-28T17:31:03.070Z,75.87
2024-01-28T17:36:05.913Z,76.32
2024-01-28T17:41:08.648Z,76.17
2024-01-28T17:46:11.574Z,77.46
2024-01-28T17:51:14.244Z,77.35
2024-01-28T17:56:16.933Z,77.35
2024-01-28T18:01:20.101Z,77.25
2024-01-28T18:06:22.924Z,76.95
2024-01-28T18:11:26.138Z,78.48
2024-01-28T18:16:29.038Z,78.14
2024-01-28T18:21:32.081Z,79.08
2024-01-28T18:26:34.932Z,79.10
2024-01-28T18:31:41.248Z,78.59
2024-01-28T18:36:43.964Z,78.20
2024-01-28T18:41:46.669Z,78.34
2024-01-28T18:46:49.335Z,77.84
2024-01-28T18:51:52.032Z,78.02
2024-01-28T18:56:54.774Z,77.93
2024-01-28T19:01:57.500Z,78.04
2024-01-28T19:07:00.222Z,78.68
2024-01-28T19:12:04.585Z,79.58
2024-01-28T19:17:07.292Z,78.90
2024-01-28T19:22:10.180Z,78.91
2024-01-28T19:27:12.845Z,78.67
2024-01-28T19:32:15.476Z,78.53
2024-01-28T19:37:18.842Z,79.33
2024-01-28T19:42:21.950Z,79.20
2024-01-28T19:47:24.598Z,79.25
2024-01-28T19:52:27.284Z,79.91
2024-01-28T19:57:29.990Z,79.58
2024-01-28T20:02:32.604Z,79.60
2024-01-28T20:07:35.329Z,79.68
2024-01-28T20:12:40.176Z,79.35
2024-01-28T20:17:43.138Z,78.57
2024-01-28T20:22:46.818Z,78.53
2024-01-28T20:27:49.495Z,78.21
2024-01-28T20:32:52.706Z,77.90
2024-01-28T20:37:55.371Z,77.30
2024-01-28T20:42:58.126Z,76.98
2024-01-28T20:48:00.792Z,77.02
2024-01-28T20:53:03.604Z,77.01
